createdAt,value
2019-06-18T00:07:14.000Z,39.48
2019-06-18T00:17:14.000Z,39.61
2019-06-18T00:27:15.000Z,39.924
2019-06-18T00:37:15.000Z,40.197
2019-06-18T00:47:15.000Z,40.316
2019-06-18T00:57:15.000Z,40.554
2019-06-18T01:07:15.000Z,40.727
2019-06-18T01:17:15.000Z,40.75
2019-06-18T01:27:15.000Z,40.912
2019-06-18T01:37:15.000Z,40.922
2019-06-18T01:47:15.000Z,41.118
2019-06-18T01:57:15.000Z,41.385
2019-06-18T02:07:15.000Z,41.477
2019-06-18T02:17:15.000Z,41.485
2019-06-18T02:27:15.000Z,41.777
2019-06-18T02:37:15.000Z,41.929
2019-06-18T02:47:15.000Z,42.156
2019-06-18T02:57:15.000Z,42.372
2019-06-18T03:07:15.000Z,42.523
2019-06-18T03:17:15.000Z,42.351
2019-06-18T03:27:15.000Z,42.751
2019-06-18T03:37:15.000Z,42.805
2019-06-18T03:47:15.000Z,43.023
2019-06-18T03:57:15.000Z,42.762
2019-06-18T04:07:15.000Z,42.881
2019-06-18T04:17:15.000Z,42.762
2019-06-18T04:27:15.000Z,43.241
2019-06-18T04:37:15.000Z,43.373
2019-06-18T04:47:15.000Z,43.387
2019-06-18T04:57:15.000Z,43.289
2019-06-18T05:07:15.000Z,43.485
2019-06-18T05:17:15.000Z,43.492
2019-06-18T05:27:15.000Z,43.44
2019-06-18T05:37:15.000Z,43.268
2019-06-18T05:47:15.000Z,43.653
2019-06-18T05:57:15.000Z,43.652
2019-06-18T06:07:15.000Z,43.405
2019-06-18T06:17:15.000Z,42.834
2019-06-18T06:27:15.000Z,42.376
2019-06-18T06:37:15.000Z,42.07
2019-06-18T06:47:15.000Z,42.131
2019-06-18T06:57:15.000Z,42.164
2019-06-18T07:07:15.000Z,43.015
2019-06-18T07:17:15.000Z,42.869
2019-06-18T07:27:15.000Z,42.885
2019-06-18T07:47:15.000Z,42.843
2019-06-18T07:57:15.000Z,42.678
2019-06-18T08:07:15.000Z,42.81
2019-06-18T08:17:15.000Z,42.74
2019-06-18T08:27:16.000Z,42.592
2019-06-18T08:37:17.000Z,42.808
2019-06-18T08:47:16.000Z,42.559
2019-06-18T08:57:16.000Z,42.4
2019-06-18T09:07:16.000Z,42.228
2019-06-18T09:17:16.000Z,41.948
2019-06-18T09:27:16.000Z,41.676
2019-06-18T09:37:17.000Z,41.307
2019-06-18T09:47:16.000Z,41.067
2019-06-18T09:57:16.000Z,40.851
2019-06-18T10:07:16.000Z,40.526
2019-06-18T10:17:16.000Z,40.42
2019-06-18T10:27:16.000Z,40.336
2019-06-18T10:37:16.000Z,40.077
2019-06-18T10:47:16.000Z,39.937
2019-06-18T10:57:20.000Z,39.799
2019-06-18T11:07:16.000Z,39.657
2019-06-18T11:17:17.000Z,39.539
2019-06-18T11:27:16.000Z,39.421
2019-06-18T11:37:16.000Z,39.206
2019-06-18T11:47:17.000Z,39.253
2019-06-18T11:57:16.000Z,39.123
2019-06-18T12:07:16.000Z,38.959
2019-06-18T12:17:16.000Z,38.719
2019-06-18T12:27:16.000Z,38.664
2019-06-18T12:37:16.000Z,38.744
2019-06-18T12:47:16.000Z,38.734
2019-06-18T12:57:16.000Z,38.424
2019-06-18T13:07:17.000Z,38.616
2019-06-18T13:17:16.000Z,38.684
2019-06-18T13:27:16.000Z,38.543
2019-06-18T13:37:16.000Z,38.377
2019-06-18T13:47:16.000Z,38.433
2019-06-18T13:57:16.000Z,36.786
2019-06-18T14:07:16.000Z,37.822
2019-06-18T14:17:16.000Z,38.1
2019-06-18T14:27:16.000Z,38.19
2019-06-18T14:37:17.000Z,38.223
2019-06-18T14:47:16.000Z,38.08
2019-06-18T14:57:16.000Z,38.181
2019-06-18T15:07:16.000Z,38.214
2019-06-18T15:17:17.000Z,38.193
2019-06-18T15:27:16.000Z,38.216
2019-06-18T15:37:16.000Z,38.24
2019-06-18T15:47:16.000Z,38.207
2019-06-18T15:57:16.000Z,38.206
2019-06-18T16:07:17.000Z,38.354
2019-06-18T16:17:18.000Z,38.322
2019-06-18T16:27:16.000Z,38.579
2019-06-18T16:37:16.000Z,38.645
2019-06-18T16:47:18.000Z,38.622
2019-06-18T17:07:17.000Z,38.675
2019-06-18T17:17:17.000Z,38.665
2019-06-18T17:27:17.000Z,38.686
2019-06-18T17:37:20.000Z,38.707
2019-06-18T17:47:17.000Z,38.654
2019-06-18T17:57:17.000Z,38.643
2019-06-18T18:07:17.000Z,38.62
2019-06-18T18:27:17.000Z,38.673
2019-06-18T18:37:17.000Z,38.706
2019-06-18T18:47:17.000Z,38.716
2019-06-18T18:57:17.000Z,38.715
2019-06-18T19:07:17.000Z,38.78
2019-06-18T19:17:20.000Z,38.701
2019-06-18T19:37:20.000Z,38.798
2019-06-18T19:57:18.000Z,38.635
2019-06-18T20:07:20.000Z,38.793
2019-06-18T20:27:19.000Z,39.19
2019-06-18T20:37:18.000Z,39.332
2019-06-18T20:47:17.000Z,39.508
2019-06-18T20:57:17.000Z,39.696
2019-06-18T21:07:17.000Z,39.937
2019-06-18T21:17:17.000Z,39.858
2019-06-18T21:27:17.000Z,40.087
2019-06-18T21:37:17.000Z,40.386
2019-06-18T21:57:17.000Z,41.284
2019-06-18T22:07:17.000Z,40.993
2019-06-18T22:17:17.000Z,40.835
2019-06-18T22:37:17.000Z,40.921
2019-06-18T22:47:17.000Z,41.042
2019-06-18T22:57:17.000Z,41.562
2019-06-18T23:07:17.000Z,41.782
2019-06-18T23:17:17.000Z,41.732
2019-06-18T23:27:17.000Z,41.873
2019-06-18T23:47:18.000Z,41.914
2019-06-18T23:57:17.000Z,42.14
